EmailTwitter


Surface observations / United Kingdom / EGHI (03865)

Regions: Quebec | Canada | USA | Europe | France | UK | Elsewhere
Station
Display
Info & Location for EGHI (03865) | Help decoding METAR

Weather Conditions observed on 2018/09/24 at 07:50 UTC at SOUTHAMPTON WX C, UK (EGHI)

Temperature: 7.0 Celsius.

Dewpoint: 5.0 Celsius.

Relative Humidity: 87%

Winds: Variable at 4 km/h or 2 knots.

Mean Sea level Pressure: 103.80 kilopascals.

Coded METAR:

EGHI 240750Z VRB02KT CAVOK 07/05 Q1038=